sensor_id;sensor_type;location;lat;lon;timestamp;temperature;humidity
10233;DHT22;5161;48.174;11.756;2023-06-10T00:02:11;21.50;57.60
10233;DHT22;5161;48.174;11.756;2023-06-10T00:04:37;21.40;57.60
10233;DHT22;5161;48.174;11.756;2023-06-10T00:07:03;21.40;57.70
10233;DHT22;5161;48.174;11.756;2023-06-10T00:09:29;21.40;57.70
10233;DHT22;5161;48.174;11.756;2023-06-10T00:11:55;21.40;57.80
10233;DHT22;5161;48.174;11.756;2023-06-10T00:14:20;21.30;57.80
10233;DHT22;5161;48.174;11.756;2023-06-10T00:16:46;21.30;57.90
10233;DHT22;5161;48.174;11.756;2023-06-10T00:19:11;21.30;58.10
10233;DHT22;5161;48.174;11.756;2023-06-10T00:21:39;21.30;58.00
10233;DHT22;5161;48.174;11.756;2023-06-10T00:24:08;21.20;58.00
10233;DHT22;5161;48.174;11.756;2023-06-10T00:26:40;21.20;58.10
10233;DHT22;5161;48.174;11.756;2023-06-10T00:29:06;21.10;58.00
10233;DHT22;5161;48.174;11.756;2023-06-10T00:31:34;21.20;58.30
10233;DHT22;5161;48.174;11.756;2023-06-10T00:33:59;21.10;58.20
10233;DHT22;5161;48.174;11.756;2023-06-10T00:36:25;21.10;58.30
10233;DHT22;5161;48.174;11.756;2023-06-10T00:38:51;21.00;58.30
10233;DHT22;5161;48.174;11.756;2023-06-10T00:41:16;21.00;58.40
10233;DHT22;5161;48.174;11.756;2023-06-10T00:43:42;21.00;58.50
10233;DHT22;5161;48.174;11.756;2023-06-10T00:46:07;21.00;58.60
10233;DHT22;5161;48.174;11.756;2023-06-10T00:48:34;20.90;58.60
10233;DHT22;5161;48.174;11.756;2023-06-10T00:51:00;20.90;58.70
10233;DHT22;5161;48.174;11.756;2023-06-10T00:53:26;20.90;58.80
10233;DHT22;5161;48.174;11.756;2023-06-10T00:55:52;20.90;58.80
10233;DHT22;5161;48.174;11.756;2023-06-10T00:58:18;20.90;58.90
10233;DHT22;5161;48.174;11.756;2023-06-10T01:00:43;20.90;59.00
10233;DHT22;5161;48.174;11.756;2023-06-10T01:03:10;20.80;58.90
10233;DHT22;5161;48.174;11.756;2023-06-10T01:05:38;20.80;59.00
10233;DHT22;5161;48.174;11.756;2023-06-10T01:08:09;20.80;59.10
10233;DHT22;5161;48.174;11.756;2023-06-10T01:10:39;20.80;59.10
10233;DHT22;5161;48.174;11.756;2023-06-10T01:13:08;20.70;59.20
10233;DHT22;5161;48.174;11.756;2023-06-10T01:15:37;20.70;59.20
10233;DHT22;5161;48.174;11.756;2023-06-10T01:18:08;20.60;59.30
10233;DHT22;5161;48.174;11.756;2023-06-10T01:20:36;20.60;59.30
10233;DHT22;5161;48.174;11.756;2023-06-10T01:23:05;20.60;59.40
10233;DHT22;5161;48.174;11.756;2023-06-10T01:25:32;20.60;59.50
10233;DHT22;5161;48.174;11.756;2023-06-10T01:31:03;20.50;60.30
10233;DHT22;5161;48.174;11.756;2023-06-10T01:33:37;20.50;59.80
10233;DHT22;5161;48.174;11.756;2023-06-10T01:36:04;20.50;59.60
10233;DHT22;5161;48.174;11.756;2023-06-10T01:38:33;20.50;59.70
10233;DHT22;5161;48.174;11.756;2023-06-10T01:41:01;20.50;59.80
10233;DHT22;5161;48.174;11.756;2023-06-10T01:43:28;20.50;59.90
10233;DHT22;5161;48.174;11.756;2023-06-10T01:45:54;20.50;59.90
10233;DHT22;5161;48.174;11.756;2023-06-10T01:48:19;20.50;60.00
10233;DHT22;5161;48.174;11.756;2023-06-10T01:50:45;20.40;60.00
10233;DHT22;5161;48.174;11.756;2023-06-10T01:53:11;20.40;60.10
10233;DHT22;5161;48.174;11.756;2023-06-10T01:55:36;20.40;60.10
10233;DHT22;5161;48.174;11.756;2023-06-10T01:58:02;20.40;60.20
10233;DHT22;5161;48.174;11.756;2023-06-10T02:00:28;20.40;60.30
10233;DHT22;5161;48.174;11.756;2023-06-10T02:02:53;20.30;60.30
10233;DHT22;5161;48.174;11.756;2023-06-10T02:05:19;20.30;60.40
10233;DHT22;5161;48.174;11.756;2023-06-10T02:07:44;20.30;60.60
10233;DHT22;5161;48.174;11.756;2023-06-10T02:10:10;20.30;60.80
10233;DHT22;5161;48.174;11.756;2023-06-10T02:12:36;20.20;60.80
10233;DHT22;5161;48.174;11.756;2023-06-10T02:15:01;20.20;60.90
10233;DHT22;5161;48.174;11.756;2023-06-10T02:17:27;20.20;61.10
10233;DHT22;5161;48.174;11.756;2023-06-10T02:19:52;20.10;61.00
10233;DHT22;5161;48.174;11.756;2023-06-10T02:22:22;20.10;61.00
10233;DHT22;5161;48.174;11.756;2023-06-10T02:24:48;20.10;61.10
10233;DHT22;5161;48.174;11.756;2023-06-10T02:27:15;20.10;61.00
10233;DHT22;5161;48.174;11.756;2023-06-10T02:29:41;20.00;61.00
10233;DHT22;5161;48.174;11.756;2023-06-10T02:32:07;20.10;61.20
10233;DHT22;5161;48.174;11.756;2023-06-10T02:34:33;20.00;61.30
10233;DHT22;5161;48.174;11.756;2023-06-10T02:36:59;20.00;61.30
10233;DHT22;5161;48.174;11.756;2023-06-10T02:39:24;20.00;61.40
10233;DHT22;5161;48.174;11.756;2023-06-10T02:41:50;19.90;61.40
10233;DHT22;5161;48.174;11.756;2023-06-10T02:44:17;20.00;61.60
10233;DHT22;5161;48.174;11.756;2023-06-10T02:46:43;19.90;61.60
10233;DHT22;5161;48.174;11.756;2023-06-10T02:49:08;19.90;61.70
10233;DHT22;5161;48.174;11.756;2023-06-10T02:51:34;19.90;61.80
10233;DHT22;5161;48.174;11.756;2023-06-10T02:53:59;19.90;61.80
10233;DHT22;5161;48.174;11.756;2023-06-10T02:56:25;19.90;61.90
10233;DHT22;5161;48.174;11.756;2023-06-10T02:58:51;19.80;61.80
10233;DHT22;5161;48.174;11.756;2023-06-10T03:01:17;19.80;61.90
10233;DHT22;5161;48.174;11.756;2023-06-10T03:03:44;19.80;62.00
10233;DHT22;5161;48.174;11.756;2023-06-10T03:06:10;19.80;62.30
10233;DHT22;5161;48.174;11.756;2023-06-10T03:08:36;19.80;62.50
10233;DHT22;5161;48.174;11.756;2023-06-10T03:11:03;19.70;62.50
10233;DHT22;5161;48.174;11.756;2023-06-10T03:13:28;19.70;63.20
10233;DHT22;5161;48.174;11.756;2023-06-10T03:15:54;19.70;62.70
10233;DHT22;5161;48.174;11.756;2023-06-10T03:18:19;19.70;62.90
10233;DHT22;5161;48.174;11.756;2023-06-10T03:20:45;19.70;63.00
10233;DHT22;5161;48.174;11.756;2023-06-10T03:23:11;19.70;63.10
10233;DHT22;5161;48.174;11.756;2023-06-10T03:25:37;19.60;63.20
10233;DHT22;5161;48.174;11.756;2023-06-10T03:28:02;19.60;63.40
10233;DHT22;5161;48.174;11.756;2023-06-10T03:30:28;19.60;63.50
10233;DHT22;5161;48.174;11.756;2023-06-10T03:32:54;19.60;63.50
10233;DHT22;5161;48.174;11.756;2023-06-10T03:35:19;19.60;63.50
10233;DHT22;5161;48.174;11.756;2023-06-10T03:37:46;19.60;63.60
10233;DHT22;5161;48.174;11.756;2023-06-10T03:40:11;19.60;63.70
10233;DHT22;5161;48.174;11.756;2023-06-10T03:42:37;19.60;63.60
10233;DHT22;5161;48.174;11.756;2023-06-10T03:45:03;19.60;63.80
10233;DHT22;5161;48.174;11.756;2023-06-10T03:47:36;19.60;63.90
10233;DHT22;5161;48.174;11.756;2023-06-10T03:50:03;19.60;64.00
10233;DHT22;5161;48.174;11.756;2023-06-10T03:52:29;19.60;64.10
10233;DHT22;5161;48.174;11.756;2023-06-10T03:54:54;19.50;64.10
10233;DHT22;5161;48.174;11.756;2023-06-10T03:57:20;19.50;64.20
10233;DHT22;5161;48.174;11.756;2023-06-10T03:59:45;19.50;64.30
10233;DHT22;5161;48.174;11.756;2023-06-10T04:02:12;19.50;64.40
10233;DHT22;5161;48.174;11.756;2023-06-10T04:04:38;19.50;64.50
10233;DHT22;5161;48.174;11.756;2023-06-10T04:07:04;19.50;64.60
10233;DHT22;5161;48.174;11.756;2023-06-10T04:09:30;19.50;64.60
10233;DHT22;5161;48.174;11.756;2023-06-10T04:11:56;19.50;64.60
10233;DHT22;5161;48.174;11.756;2023-06-10T04:14:21;19.50;64.70
10233;DHT22;5161;48.174;11.756;2023-06-10T04:16:47;19.50;64.80
10233;DHT22;5161;48.174;11.756;2023-06-10T04:19:13;19.50;64.80
10233;DHT22;5161;48.174;11.756;2023-06-10T04:21:38;19.50;64.90
10233;DHT22;5161;48.174;11.756;2023-06-10T04:24:04;19.50;64.90
10233;DHT22;5161;48.174;11.756;2023-06-10T04:26:29;19.50;65.00
10233;DHT22;5161;48.174;11.756;2023-06-10T04:28:55;19.60;65.10
10233;DHT22;5161;48.174;11.756;2023-06-10T04:31:21;19.60;65.10
10233;DHT22;5161;48.174;11.756;2023-06-10T04:33:46;19.60;65.30
10233;DHT22;5161;48.174;11.756;2023-06-10T04:36:12;19.60;65.50
10233;DHT22;5161;48.174;11.756;2023-06-10T04:38:37;19.60;65.40
10233;DHT22;5161;48.174;11.756;2023-06-10T04:41:03;19.60;65.50
10233;DHT22;5161;48.174;11.756;2023-06-10T04:43:29;19.60;65.60
10233;DHT22;5161;48.174;11.756;2023-06-10T04:45:56;19.60;65.60
10233;DHT22;5161;48.174;11.756;2023-06-10T04:48:21;19.70;65.70
10233;DHT22;5161;48.174;11.756;2023-06-10T04:50:49;19.70;65.70
10233;DHT22;5161;48.174;11.756;2023-06-10T04:53:15;19.70;65.80
10233;DHT22;5161;48.174;11.756;2023-06-10T04:55:41;19.70;65.90
10233;DHT22;5161;48.174;11.756;2023-06-10T04:58:07;19.70;66.00
10233;DHT22;5161;48.174;11.756;2023-06-10T05:00:33;19.70;66.10
10233;DHT22;5161;48.174;11.756;2023-06-10T05:02:58;19.80;66.20
10233;DHT22;5161;48.174;11.756;2023-06-10T05:05:24;19.80;66.80
10233;DHT22;5161;48.174;11.756;2023-06-10T05:07:49;19.80;66.50
10233;DHT22;5161;48.174;11.756;2023-06-10T05:10:15;19.80;66.70
10233;DHT22;5161;48.174;11.756;2023-06-10T05:12:40;19.80;66.80
10233;DHT22;5161;48.174;11.756;2023-06-10T05:15:07;19.80;67.00
10233;DHT22;5161;48.174;11.756;2023-06-10T05:17:33;19.90;67.20
10233;DHT22;5161;48.174;11.756;2023-06-10T05:20:00;19.90;67.30
10233;DHT22;5161;48.174;11.756;2023-06-10T05:22:26;19.90;67.40
10233;DHT22;5161;48.174;11.756;2023-06-10T05:24:53;20.00;67.40
10233;DHT22;5161;48.174;11.756;2023-06-10T05:27:18;20.00;67.60
10233;DHT22;5161;48.174;11.756;2023-06-10T05:29:44;20.00;67.70
10233;DHT22;5161;48.174;11.756;2023-06-10T05:32:11;20.00;67.90
10233;DHT22;5161;48.174;11.756;2023-06-10T05:34:36;20.00;67.90
10233;DHT22;5161;48.174;11.756;2023-06-10T05:37:02;20.00;67.90
10233;DHT22;5161;48.174;11.756;2023-06-10T05:39:28;20.10;68.00
10233;DHT22;5161;48.174;11.756;2023-06-10T05:41:54;20.10;68.00
10233;DHT22;5161;48.174;11.756;2023-06-10T05:44:19;20.10;67.90
10233;DHT22;5161;48.174;11.756;2023-06-10T05:46:45;20.20;68.10
10233;DHT22;5161;48.174;11.756;2023-06-10T05:49:11;20.20;68.00
10233;DHT22;5161;48.174;11.756;2023-06-10T05:51:36;20.20;68.00
10233;DHT22;5161;48.174;11.756;2023-06-10T05:54:02;20.20;67.70
10233;DHT22;5161;48.174;11.756;2023-06-10T05:56:28;20.10;67.90
10233;DHT22;5161;48.174;11.756;2023-06-10T05:58:54;20.20;68.10
10233;DHT22;5161;48.174;11.756;2023-06-10T06:01:19;20.20;68.00
10233;DHT22;5161;48.174;11.756;2023-06-10T06:03:45;20.20;68.10
10233;DHT22;5161;48.174;11.756;2023-06-10T06:06:10;20.20;68.10
10233;DHT22;5161;48.174;11.756;2023-06-10T06:08:36;20.20;68.10
10233;DHT22;5161;48.174;11.756;2023-06-10T06:11:02;20.20;68.00
10233;DHT22;5161;48.174;11.756;2023-06-10T06:13:27;20.20;68.10
10233;DHT22;5161;48.174;11.756;2023-06-10T06:15:53;20.20;68.20
10233;DHT22;5161;48.174;11.756;2023-06-10T06:18:18;20.20;68.20
10233;DHT22;5161;48.174;11.756;2023-06-10T06:20:44;20.20;68.30
10233;DHT22;5161;48.174;11.756;2023-06-10T06:23:10;20.30;68.40
10233;DHT22;5161;48.174;11.756;2023-06-10T06:25:36;20.20;68.10
10233;DHT22;5161;48.174;11.756;2023-06-10T06:28:06;20.20;68.50
10233;DHT22;5161;48.174;11.756;2023-06-10T06:30:32;20.20;68.50
10233;DHT22;5161;48.174;11.756;2023-06-10T06:32:58;20.20;68.40
10233;DHT22;5161;48.174;11.756;2023-06-10T06:35:24;20.20;68.50
10233;DHT22;5161;48.174;11.756;2023-06-10T06:37:50;20.30;69.10
10233;DHT22;5161;48.174;11.756;2023-06-10T06:40:15;20.30;68.90
10233;DHT22;5161;48.174;11.756;2023-06-10T06:42:41;20.40;69.00
10233;DHT22;5161;48.174;11.756;2023-06-10T06:45:07;20.50;69.00
10233;DHT22;5161;48.174;11.756;2023-06-10T06:47:32;20.50;69.10
10233;DHT22;5161;48.174;11.756;2023-06-10T06:49:58;20.50;69.10
10233;DHT22;5161;48.174;11.756;2023-06-10T06:52:23;20.60;69.20
10233;DHT22;5161;48.174;11.756;2023-06-10T06:54:49;20.60;69.20
10233;DHT22;5161;48.174;11.756;2023-06-10T06:57:15;20.70;69.10
10233;DHT22;5161;48.174;11.756;2023-06-10T06:59:40;20.60;69.20
10233;DHT22;5161;48.174;11.756;2023-06-10T07:02:06;20.70;69.30
10233;DHT22;5161;48.174;11.756;2023-06-10T07:04:32;20.80;69.50
10233;DHT22;5161;48.174;11.756;2023-06-10T07:06:57;20.80;69.30
10233;DHT22;5161;48.174;11.756;2023-06-10T07:09:23;20.80;69.40
10233;DHT22;5161;48.174;11.756;2023-06-10T07:11:48;20.90;69.50
10233;DHT22;5161;48.174;11.756;2023-06-10T07:14:14;20.90;69.50
10233;DHT22;5161;48.174;11.756;2023-06-10T07:16:39;21.00;69.60
10233;DHT22;5161;48.174;11.756;2023-06-10T07:19:05;21.00;69.30
10233;DHT22;5161;48.174;11.756;2023-06-10T07:21:31;21.00;69.70
10233;DHT22;5161;48.174;11.756;2023-06-10T07:23:57;21.00;69.50
10233;DHT22;5161;48.174;11.756;2023-06-10T07:26:23;21.10;69.50
10233;DHT22;5161;48.174;11.756;2023-06-10T07:28:49;21.10;69.00
10233;DHT22;5161;48.174;11.756;2023-06-10T07:31:14;21.10;69.20
10233;DHT22;5161;48.174;11.756;2023-06-10T07:33:40;21.10;69.70
10233;DHT22;5161;48.174;11.756;2023-06-10T07:36:06;21.20;69.90
10233;DHT22;5161;48.174;11.756;2023-06-10T07:38:32;21.20;69.90
10233;DHT22;5161;48.174;11.756;2023-06-10T07:40:58;21.30;70.70
10233;DHT22;5161;48.174;11.756;2023-06-10T07:43:24;21.30;70.30
10233;DHT22;5161;48.174;11.756;2023-06-10T07:45:49;21.30;70.20
10233;DHT22;5161;48.174;11.756;2023-06-10T07:48:15;21.40;70.30
10233;DHT22;5161;48.174;11.756;2023-06-10T07:50:40;21.40;70.30
10233;DHT22;5161;48.174;11.756;2023-06-10T07:53:06;21.40;70.10
10233;DHT22;5161;48.174;11.756;2023-06-10T07:55:32;21.40;70.00
10233;DHT22;5161;48.174;11.756;2023-06-10T07:57:57;21.40;69.70
10233;DHT22;5161;48.174;11.756;2023-06-10T08:00:23;21.40;69.80
10233;DHT22;5161;48.174;11.756;2023-06-10T08:02:49;21.40;69.80
10233;DHT22;5161;48.174;11.756;2023-06-10T08:05:16;21.50;69.90
10233;DHT22;5161;48.174;11.756;2023-06-10T08:07:42;21.50;70.00
10233;DHT22;5161;48.174;11.756;2023-06-10T08:10:08;21.50;70.00
10233;DHT22;5161;48.174;11.756;2023-06-10T08:12:34;21.60;69.90
10233;DHT22;5161;48.174;11.756;2023-06-10T08:15:00;21.60;69.80
10233;DHT22;5161;48.174;11.756;2023-06-10T08:17:26;21.60;69.60
10233;DHT22;5161;48.174;11.756;2023-06-10T08:19:51;21.60;69.20
10233;DHT22;5161;48.174;11.756;2023-06-10T08:22:17;21.70;69.30
10233;DHT22;5161;48.174;11.756;2023-06-10T08:24:43;21.70;68.60
10233;DHT22;5161;48.174;11.756;2023-06-10T08:27:09;21.70;69.20
10233;DHT22;5161;48.174;11.756;2023-06-10T08:29:35;21.70;68.50
10233;DHT22;5161;48.174;11.756;2023-06-10T08:32:01;21.70;68.90
10233;DHT22;5161;48.174;11.756;2023-06-10T08:34:26;21.70;69.20
10233;DHT22;5161;48.174;11.756;2023-06-10T08:36:52;21.70;69.00
10233;DHT22;5161;48.174;11.756;2023-06-10T08:39:21;21.80;69.00
10233;DHT22;5161;48.174;11.756;2023-06-10T08:44:29;21.90;69.20
10233;DHT22;5161;48.174;11.756;2023-06-10T08:47:00;21.90;69.20
10233;DHT22;5161;48.174;11.756;2023-06-10T08:49:26;22.00;69.30
10233;DHT22;5161;48.174;11.756;2023-06-10T08:51:58;22.00;69.00
10233;DHT22;5161;48.174;11.756;2023-06-10T08:54:27;22.00;69.10
10233;DHT22;5161;48.174;11.756;2023-06-10T08:56:55;22.00;68.70
10233;DHT22;5161;48.174;11.756;2023-06-10T08:59:23;22.00;69.20
10233;DHT22;5161;48.174;11.756;2023-06-10T09:01:50;22.10;69.60
10233;DHT22;5161;48.174;11.756;2023-06-10T09:04:16;22.20;69.60
10233;DHT22;5161;48.174;11.756;2023-06-10T09:06:43;22.20;69.10
10233;DHT22;5161;48.174;11.756;2023-06-10T09:09:10;22.20;68.80
10233;DHT22;5161;48.174;11.756;2023-06-10T09:11:37;22.20;69.10
10233;DHT22;5161;48.174;11.756;2023-06-10T09:14:03;22.30;69.40
10233;DHT22;5161;48.174;11.756;2023-06-10T09:16:28;22.30;69.10
10233;DHT22;5161;48.174;11.756;2023-06-10T09:18:54;22.30;69.20
10233;DHT22;5161;48.174;11.756;2023-06-10T09:21:22;22.40;69.10
10233;DHT22;5161;48.174;11.756;2023-06-10T09:23:48;22.30;68.20
10233;DHT22;5161;48.174;11.756;2023-06-10T09:26:14;22.30;68.50
10233;DHT22;5161;48.174;11.756;2023-06-10T09:28:43;22.30;67.70
10233;DHT22;5161;48.174;11.756;2023-06-10T09:31:09;22.40;68.70
10233;DHT22;5161;48.174;11.756;2023-06-10T09:33:39;22.40;68.50
10233;DHT22;5161;48.174;11.756;2023-06-10T09:36:05;22.50;68.40
10233;DHT22;5161;48.174;11.756;2023-06-10T09:38:32;22.50;68.30
10233;DHT22;5161;48.174;11.756;2023-06-10T09:40:58;22.50;67.90
10233;DHT22;5161;48.174;11.756;2023-06-10T09:43:41;22.50;67.10
10233;DHT22;5161;48.174;11.756;2023-06-10T09:46:17;22.50;67.50
10233;DHT22;5161;48.174;11.756;2023-06-10T09:48:44;22.50;67.80
10233;DHT22;5161;48.174;11.756;2023-06-10T09:51:10;22.50;67.60
10233;DHT22;5161;48.174;11.756;2023-06-10T09:53:36;22.50;67.50
10233;DHT22;5161;48.174;11.756;2023-06-10T09:56:02;22.60;67.50
10233;DHT22;5161;48.174;11.756;2023-06-10T09:58:54;22.60;67.50
10233;DHT22;5161;48.174;11.756;2023-06-10T10:01:19;22.50;66.90
10233;DHT22;5161;48.174;11.756;2023-06-10T10:03:51;22.50;67.10
10233;DHT22;5161;48.174;11.756;2023-06-10T10:06:19;22.60;67.50
10233;DHT22;5161;48.174;11.756;2023-06-10T10:08:46;22.60;67.10
10233;DHT22;5161;48.174;11.756;2023-06-10T10:11:12;22.70;67.30
10233;DHT22;5161;48.174;11.756;2023-06-10T10:13:39;22.80;67.40
10233;DHT22;5161;48.174;11.756;2023-06-10T10:16:11;22.80;66.50
10233;DHT22;5161;48.174;11.756;2023-06-10T10:18:39;22.80;66.80
10233;DHT22;5161;48.174;11.756;2023-06-10T10:21:11;22.90;66.90
10233;DHT22;5161;48.174;11.756;2023-06-10T10:23:57;22.90;67.00
10233;DHT22;5161;48.174;11.756;2023-06-10T10:26:26;22.90;67.00
10233;DHT22;5161;48.174;11.756;2023-06-10T10:29:03;23.00;67.00
10233;DHT22;5161;48.174;11.756;2023-06-10T10:31:32;23.00;66.90
10233;DHT22;5161;48.174;11.756;2023-06-10T10:34:02;23.00;64.60
10233;DHT22;5161;48.174;11.756;2023-06-10T10:36:28;22.90;65.90
10233;DHT22;5161;48.174;11.756;2023-06-10T10:38:54;23.00;65.90
10233;DHT22;5161;48.174;11.756;2023-06-10T10:41:20;23.10;65.90
10233;DHT22;5161;48.174;11.756;2023-06-10T10:43:47;23.10;66.10
10233;DHT22;5161;48.174;11.756;2023-06-10T10:46:14;23.20;66.10
10233;DHT22;5161;48.174;11.756;2023-06-10T10:48:41;23.20;65.90
10233;DHT22;5161;48.174;11.756;2023-06-10T10:51:08;23.20;65.20
10233;DHT22;5161;48.174;11.756;2023-06-10T10:53:34;23.10;64.80
10233;DHT22;5161;48.174;11.756;2023-06-10T10:56:08;23.20;65.20
10233;DHT22;5161;48.174;11.756;2023-06-10T10:58:37;23.20;65.20
10233;DHT22;5161;48.174;11.756;2023-06-10T11:01:11;23.20;65.20
10233;DHT22;5161;48.174;11.756;2023-06-10T11:03:45;23.20;63.10
10233;DHT22;5161;48.174;11.756;2023-06-10T11:06:16;23.30;64.50
10233;DHT22;5161;48.174;11.756;2023-06-10T11:11:23;23.30;64.60
10233;DHT22;5161;48.174;11.756;2023-06-10T11:16:28;23.40;64.30
10233;DHT22;5161;48.174;11.756;2023-06-10T11:18:54;23.50;64.50
10233;DHT22;5161;48.174;11.756;2023-06-10T11:21:20;23.50;64.30
10233;DHT22;5161;48.174;11.756;2023-06-10T11:23:46;23.50;64.50
10233;DHT22;5161;48.174;11.756;2023-06-10T11:31:21;23.60;64.30
10233;DHT22;5161;48.174;11.756;2023-06-10T11:33:48;23.60;64.20
10233;DHT22;5161;48.174;11.756;2023-06-10T11:36:17;23.60;64.40
10233;DHT22;5161;48.174;11.756;2023-06-10T11:38:42;23.60;64.40
10233;DHT22;5161;48.174;11.756;2023-06-10T11:41:08;23.70;62.20
10233;DHT22;5161;48.174;11.756;2023-06-10T11:43:34;23.70;63.00
10233;DHT22;5161;48.174;11.756;2023-06-10T11:46:00;23.70;63.80
10233;DHT22;5161;48.174;11.756;2023-06-10T11:48:27;23.80;63.80
10233;DHT22;5161;48.174;11.756;2023-06-10T11:50:55;23.80;63.20
10233;DHT22;5161;48.174;11.756;2023-06-10T11:53:21;23.80;62.10
10233;DHT22;5161;48.174;11.756;2023-06-10T11:55:49;23.90;62.90
10233;DHT22;5161;48.174;11.756;2023-06-10T11:58:20;23.90;63.40
10233;DHT22;5161;48.174;11.756;2023-06-10T12:00:54;23.90;62.80
10233;DHT22;5161;48.174;11.756;2023-06-10T12:03:21;23.90;61.70
10233;DHT22;5161;48.174;11.756;2023-06-10T12:06:04;24.00;62.20
10233;DHT22;5161;48.174;11.756;2023-06-10T12:08:30;24.00;61.90
10233;DHT22;5161;48.174;11.756;2023-06-10T12:10:56;24.10;61.20
10233;DHT22;5161;48.174;11.756;2023-06-10T12:13:23;24.10;62.30
10233;DHT22;5161;48.174;11.756;2023-06-10T12:15:49;24.20;62.40
10233;DHT22;5161;48.174;11.756;2023-06-10T12:18:21;24.30;62.70
10233;DHT22;5161;48.174;11.756;2023-06-10T12:20:48;24.30;62.60
10233;DHT22;5161;48.174;11.756;2023-06-10T12:23:14;24.40;62.70
10233;DHT22;5161;48.174;11.756;2023-06-10T12:25:50;24.50;62.10
10233;DHT22;5161;48.174;11.756;2023-06-10T12:28:16;24.50;62.70
10233;DHT22;5161;48.174;11.756;2023-06-10T12:30:44;24.60;62.60
10233;DHT22;5161;48.174;11.756;2023-06-10T12:33:17;24.60;62.80
10233;DHT22;5161;48.174;11.756;2023-06-10T12:35:50;24.60;62.60
10233;DHT22;5161;48.174;11.756;2023-06-10T12:38:23;24.70;62.80
10233;DHT22;5161;48.174;11.756;2023-06-10T12:40:53;24.80;62.70
10233;DHT22;5161;48.174;11.756;2023-06-10T12:43:23;24.80;63.20
10233;DHT22;5161;48.174;11.756;2023-06-10T12:45:49;24.80;63.00
10233;DHT22;5161;48.174;11.756;2023-06-10T12:48:22;24.80;63.10
10233;DHT22;5161;48.174;11.756;2023-06-10T12:50:54;24.70;63.20
10233;DHT22;5161;48.174;11.756;2023-06-10T12:53:21;24.60;62.90
10233;DHT22;5161;48.174;11.756;2023-06-10T12:55:47;24.60;63.10
10233;DHT22;5161;48.174;11.756;2023-06-10T12:58:13;24.60;63.30
10233;DHT22;5161;48.174;11.756;2023-06-10T13:00:39;24.60;63.40
10233;DHT22;5161;48.174;11.756;2023-06-10T13:03:05;24.60;63.10
10233;DHT22;5161;48.174;11.756;2023-06-10T13:05:32;24.60;62.60
10233;DHT22;5161;48.174;11.756;2023-06-10T13:07:59;24.60;63.00
10233;DHT22;5161;48.174;11.756;2023-06-10T13:10:25;24.60;62.80
10233;DHT22;5161;48.174;11.756;2023-06-10T13:12:51;24.60;62.50
10233;DHT22;5161;48.174;11.756;2023-06-10T13:15:17;24.50;62.80
10233;DHT22;5161;48.174;11.756;2023-06-10T13:17:46;24.50;63.00
10233;DHT22;5161;48.174;11.756;2023-06-10T13:20:16;24.60;63.10
10233;DHT22;5161;48.174;11.756;2023-06-10T13:22:42;24.60;62.90
10233;DHT22;5161;48.174;11.756;2023-06-10T13:25:08;24.60;62.70
10233;DHT22;5161;48.174;11.756;2023-06-10T13:27:35;24.60;62.60
10233;DHT22;5161;48.174;11.756;2023-06-10T13:30:04;24.50;62.20
10233;DHT22;5161;48.174;11.756;2023-06-10T13:32:30;24.50;62.40
10233;DHT22;5161;48.174;11.756;2023-06-10T13:34:56;24.60;62.60
10233;DHT22;5161;48.174;11.756;2023-06-10T13:37:22;24.60;62.50
10233;DHT22;5161;48.174;11.756;2023-06-10T13:39:48;24.60;62.70
10233;DHT22;5161;48.174;11.756;2023-06-10T13:42:18;24.60;62.50
10233;DHT22;5161;48.174;11.756;2023-06-10T13:44:44;24.60;62.50
10233;DHT22;5161;48.174;11.756;2023-06-10T13:47:10;24.60;62.50
10233;DHT22;5161;48.174;11.756;2023-06-10T13:49:36;24.60;62.60
10233;DHT22;5161;48.174;11.756;2023-06-10T13:52:02;24.60;62.40
10233;DHT22;5161;48.174;11.756;2023-06-10T13:54:27;24.60;62.50
10233;DHT22;5161;48.174;11.756;2023-06-10T13:56:53;24.60;62.40
10233;DHT22;5161;48.174;11.756;2023-06-10T13:59:19;24.70;62.60
10233;DHT22;5161;48.174;11.756;2023-06-10T14:01:45;24.90;62.70
10233;DHT22;5161;48.174;11.756;2023-06-10T14:04:11;25.00;62.30
10233;DHT22;5161;48.174;11.756;2023-06-10T14:06:37;25.00;61.80
10233;DHT22;5161;48.174;11.756;2023-06-10T14:09:03;25.10;61.40
10233;DHT22;5161;48.174;11.756;2023-06-10T14:11:28;25.10;61.40
10233;DHT22;5161;48.174;11.756;2023-06-10T14:13:54;25.20;60.50
10233;DHT22;5161;48.174;11.756;2023-06-10T14:16:23;25.30;59.90
10233;DHT22;5161;48.174;11.756;2023-06-10T14:18:49;25.30;60.30
10233;DHT22;5161;48.174;11.756;2023-06-10T14:21:16;25.40;60.00
10233;DHT22;5161;48.174;11.756;2023-06-10T14:23:42;25.30;59.70
10233;DHT22;5161;48.174;11.756;2023-06-10T14:26:09;25.40;59.80
10233;DHT22;5161;48.174;11.756;2023-06-10T14:28:35;25.40;59.10
10233;DHT22;5161;48.174;11.756;2023-06-10T14:31:00;25.50;60.10
10233;DHT22;5161;48.174;11.756;2023-06-10T14:33:26;25.60;59.70
10233;DHT22;5161;48.174;11.756;2023-06-10T14:35:51;25.70;60.30
10233;DHT22;5161;48.174;11.756;2023-06-10T14:38:17;25.70;59.50
10233;DHT22;5161;48.174;11.756;2023-06-10T14:40:43;25.80;60.60
10233;DHT22;5161;48.174;11.756;2023-06-10T14:43:08;25.90;60.70
10233;DHT22;5161;48.174;11.756;2023-06-10T14:45:35;25.90;61.00
10233;DHT22;5161;48.174;11.756;2023-06-10T14:48:01;25.90;61.10
10233;DHT22;5161;48.174;11.756;2023-06-10T14:50:27;25.90;60.60
10233;DHT22;5161;48.174;11.756;2023-06-10T14:52:52;25.90;60.60
10233;DHT22;5161;48.174;11.756;2023-06-10T14:55:18;25.80;60.40
10233;DHT22;5161;48.174;11.756;2023-06-10T14:57:43;25.90;60.90
10233;DHT22;5161;48.174;11.756;2023-06-10T15:00:09;26.00;60.80
10233;DHT22;5161;48.174;11.756;2023-06-10T15:02:35;26.00;60.60
10233;DHT22;5161;48.174;11.756;2023-06-10T15:05:01;26.00;60.80
10233;DHT22;5161;48.174;11.756;2023-06-10T15:07:26;25.90;59.50
10233;DHT22;5161;48.174;11.756;2023-06-10T15:09:52;25.70;58.90
10233;DHT22;5161;48.174;11.756;2023-06-10T15:12:17;25.70;59.90
10233;DHT22;5161;48.174;11.756;2023-06-10T15:14:43;25.70;59.30
10233;DHT22;5161;48.174;11.756;2023-06-10T15:17:08;25.70;59.50
10233;DHT22;5161;48.174;11.756;2023-06-10T15:19:34;25.60;58.90
10233;DHT22;5161;48.174;11.756;2023-06-10T15:21:59;25.50;59.10
10233;DHT22;5161;48.174;11.756;2023-06-10T15:24:25;25.50;59.20
10233;DHT22;5161;48.174;11.756;2023-06-10T15:26:50;25.40;59.00
10233;DHT22;5161;48.174;11.756;2023-06-10T15:29:16;25.50;59.10
10233;DHT22;5161;48.174;11.756;2023-06-10T15:31:42;25.40;59.00
10233;DHT22;5161;48.174;11.756;2023-06-10T15:34:07;25.40;59.20
10233;DHT22;5161;48.174;11.756;2023-06-10T15:36:34;25.40;59.20
10233;DHT22;5161;48.174;11.756;2023-06-10T15:39:03;25.30;58.80
10233;DHT22;5161;48.174;11.756;2023-06-10T15:41:29;25.30;59.10
10233;DHT22;5161;48.174;11.756;2023-06-10T15:43:55;25.30;59.30